Time;durP1;ratioP1;P1;durP2;ratioP2;P2;SDS_P1;SDS_P2;PMS_P1;PMS_P2;Temp;Humidity;BMP_temperature;BMP_pressure;BME280_temperature;BME280_humidity;BME280_pressure;Samples;Min_cycle;Max_cycle;Signal;HPM_P1;HPM_P2
2021/12/03 05:52:17;;;;;;;28.35;16.12;;;;;;;5.45;100.00;98982.56;1775768;78;21486;-44
2021/12/03 05:54:45;;;;;;;21.77;14.80;;;;;;;5.56;100.00;98987.72;1712858;82;21582;-37
2021/12/03 05:57:11;;;;;;;20.60;13.65;;;;;;;5.61;100.00;98973.88;1709961;81;21036;-38
2021/12/03 05:59:38;;;;;;;18.40;13.72;;;;;;;5.69;100.00;98979.52;1709884;81;21065;-37
2021/12/03 06:02:05;;;;;;;24.60;14.78;;;;;;;5.74;100.00;98968.27;1710100;81;21119;-37
2021/12/03 06:04:32;;;;;;;24.67;13.95;;;;;;;5.80;100.00;98966.95;1690838;81;21536;-36
2021/12/03 06:06:59;;;;;;;19.73;13.30;;;;;;;5.88;100.00;98969.53;1707861;81;21050;-37
2021/12/03 06:09:26;;;;;;;22.73;13.75;;;;;;;5.94;100.00;98967.39;1677419;83;21083;-38
2021/12/03 06:11:52;;;;;;;22.13;13.32;;;;;;;5.99;100.00;98970.41;1667702;83;21110;-37
2021/12/03 06:14:19;;;;;;;22.98;14.10;;;;;;;6.06;100.00;98973.84;1719529;81;21196;-37
2021/12/03 06:16:48;;;;;;;20.02;12.50;;;;;;;6.13;100.00;98975.11;1682149;82;21576;-37
2021/12/03 06:19:14;;;;;;;22.05;13.45;;;;;;;6.19;100.00;98974.66;1724747;81;21525;-44
2021/12/03 06:21:41;;;;;;;23.02;13.62;;;;;;;6.24;100.00;98969.02;1725319;81;20992;-37
2021/12/03 06:24:08;;;;;;;22.20;13.53;;;;;;;6.28;100.00;98968.15;1679669;82;21568;-44
2021/12/03 06:26:35;;;;;;;21.77;12.98;;;;;;;6.33;100.00;98968.56;1695178;83;21533;-44
2021/12/03 06:29:03;;;;;;;24.70;12.73;;;;;;;6.40;100.00;98975.45;1718002;81;21104;-44
2021/12/03 06:31:31;;;;;;;24.55;13.80;;;;;;;6.46;100.00;98969.80;1725583;81;21569;-45
2021/12/03 06:33:58;;;;;;;19.87;12.82;;;;;;;6.52;100.00;98982.77;1712110;81;21029;-45
2021/12/03 06:36:25;;;;;;;20.77;12.25;;;;;;;6.58;100.00;98986.64;1757905;79;21421;-45
2021/12/03 06:38:51;;;;;;;24.57;13.72;;;;;;;6.63;100.00;98974.05;1752496;80;21099;-46
2021/12/03 06:41:18;;;;;;;19.98;14.23;;;;;;;6.70;100.00;98976.61;1766738;79;21060;-45
2021/12/03 06:43:45;;;;;;;21.80;13.22;;;;;;;6.77;100.00;98976.56;1746535;79;21056;-45
2021/12/03 06:46:11;;;;;;;19.90;12.58;;;;;;;6.80;100.00;98973.96;1743892;79;21750;-45
2021/12/03 06:48:38;;;;;;;19.20;11.78;;;;;;;6.87;100.00;98982.14;1749839;79;21072;-45
2021/12/03 06:51:06;;;;;;;21.30;12.73;;;;;;;6.93;100.00;98978.20;1746219;80;21353;-38
2021/12/03 06:53:46;;;;;;;19.42;12.28;;;;;;;7.01;100.00;98969.05;1752618;79;21064;-38
2021/12/03 06:56:10;;;;;;;17.92;11.53;;;;;;;7.08;100.00;98969.89;1745667;79;21398;-40
2021/12/03 06:58:37;;;;;;;17.50;11.10;;;;;;;7.13;100.00;98969.39;1751257;79;21413;-37
2021/12/03 07:01:04;;;;;;;21.68;14.78;;;;;;;7.20;100.00;98965.90;1731821;80;21044;-37
2021/12/03 07:03:31;;;;;;;21.48;12.93;;;;;;;7.24;100.00;98974.08;1770774;79;21104;-39
2021/12/03 07:05:59;;;;;;;20.37;11.75;;;;;;;7.29;100.00;98966.25;1768416;79;21426;-37
2021/12/03 07:08:26;;;;;;;19.52;11.10;;;;;;;7.33;100.00;98968.83;1760850;79;21068;-38
2021/12/03 07:10:52;;;;;;;20.80;12.50;;;;;;;7.39;100.00;98972.67;1764723;79;21000;-38
2021/12/03 07:13:19;;;;;;;18.87;10.70;;;;;;;7.43;100.00;98969.18;1751011;78;21028;-39
2021/12/03 07:15:46;;;;;;;20.85;11.22;;;;;;;7.47;100.00;98960.45;1739707;80;21001;-38
2021/12/03 07:18:13;;;;;;;19.95;10.45;;;;;;;7.51;100.00;98953.48;1743846;79;21797;-45
2021/12/03 07:20:58;;;;;;;22.42;11.03;;;;;;;7.55;100.00;98962.14;1756961;80;21055;-44
2021/12/03 07:23:31;;;;;;;20.30;10.32;;;;;;;7.59;100.00;98962.52;1761570;79;21017;-44
2021/12/03 07:25:59;;;;;;;20.32;11.10;;;;;;;7.63;100.00;98956.42;1715170;80;21036;-44
2021/12/03 07:28:26;;;;;;;27.40;11.75;;;;;;;7.66;100.00;98945.99;1701107;80;21980;-44
2021/12/03 07:30:52;;;;;;;24.20;9.98;;;;;;;7.71;100.00;98957.20;1713376;81;21605;-44
2021/12/03 07:33:19;;;;;;;19.90;10.08;;;;;;;7.77;100.00;98961.07;1694241;82;21016;-45
2021/12/03 07:36:05;;;;;;;16.87;10.00;;;;;;;7.82;100.00;98955.35;1702237;82;21009;-44
2021/12/03 07:38:50;;;;;;;20.60;10.43;;;;;;;7.87;100.00;98943.59;1711874;81;21506;-44
2021/12/03 07:41:29;;;;;;;16.55;9.03;;;;;;;7.92;100.00;98947.88;1690544;83;21145;-44
2021/12/03 07:44:07;;;;;;;22.37;8.98;;;;;;;7.97;100.00;98946.09;1678224;83;21102;-44
2021/12/03 07:46:34;;;;;;;24.30;9.98;;;;;;;8.04;100.00;98938.20;1699049;82;21176;-37
2021/12/03 07:49:02;;;;;;;22.45;8.70;;;;;;;8.09;100.00;98941.63;1697160;82;21131;-44
2021/12/03 07:51:48;;;;;;;23.02;9.80;;;;;;;8.11;100.00;98940.71;1695972;82;21054;-44
2021/12/03 07:54:15;;;;;;;20.10;9.75;;;;;;;8.16;100.00;98928.50;1700402;82;21045;-44
2021/12/03 07:56:42;;;;;;;22.93;9.68;;;;;;;8.20;100.00;98926.29;1683212;82;22134;-44
2021/12/03 07:59:08;;;;;;;17.95;8.13;;;;;;;8.27;100.00;98930.98;1693236;82;21037;-45
2021/12/03 08:01:35;;;;;;;18.07;8.33;;;;;;;8.35;100.00;98922.64;1710246;82;21529;-45
2021/12/03 08:04:02;;;;;;;25.05;9.75;;;;;;;8.42;100.00;98910.42;1709376;82;21480;-45
2021/12/03 08:06:28;;;;;;;14.70;8.40;;;;;;;8.47;100.00;98906.88;1713012;81;21704;-45
2021/12/03 08:08:55;;;;;;;20.62;7.90;;;;;;;8.50;100.00;98897.69;1761632;79;21073;-44
2021/12/03 08:11:23;;;;;;;17.50;7.80;;;;;;;8.51;100.00;98905.92;1741081;80;20984;-43
2021/12/03 08:13:58;;;;;;;21.30;8.10;;;;;;;8.55;100.00;98899.38;1764301;80;21131;-37
2021/12/03 08:17:05;;;;;;;;;;;;;;;8.56;100.00;98901.96;1748276;79;20961;-38
2021/12/03 08:19:37;;;;;;;18.67;7.83;;;;;;;8.63;100.00;98901.43;1768704;79;20438;-45
2021/12/03 08:22:04;;;;;;;16.57;7.10;;;;;;;8.69;100.00;98902.64;1740362;79;21669;-45
2021/12/03 08:24:49;;;;;;;18.67;7.30;;;;;;;8.74;100.00;98909.96;1745680;80;21030;-45
2021/12/03 08:27:28;;;;;;;15.32;6.75;;;;;;;8.79;100.00;98908.15;1728330;79;21242;-45
2021/12/03 08:33:29;;;;;;;19.40;8.93;;;;;;;8.96;100.00;98902.23;1739281;79;21116;-39
2021/12/03 08:36:51;;;;;;;15.65;7.00;;;;;;;9.08;100.00;98898.57;1738522;79;21076;-47
2021/12/03 08:40:23;;;;;;;12.15;6.90;;;;;;;9.16;100.00;98903.24;1741618;79;21566;-46
2021/12/03 08:43:02;;;;;;;12.58;6.87;;;;;;;9.28;100.00;98904.34;1750305;79;20969;-38
2021/12/03 08:45:52;;;;;;;21.42;8.05;;;;;;;9.36;100.00;98909.42;1754894;79;21808;-41
2021/12/03 08:48:36;;;;;;;16.15;6.53;;;;;;;9.43;100.00;98905.81;1749617;80;21032;-38
2021/12/03 08:51:46;;;;;;;20.20;6.40;;;;;;;9.50;100.00;98893.06;1763219;79;21466;-45
2021/12/03 08:55:06;;;;;;;17.48;6.08;;;;;;;9.55;100.00;98904.28;1754592;80;21686;-46
2021/12/03 08:57:54;;;;;;;12.43;6.37;;;;;;;9.68;100.00;98887.09;1755808;80;21060;-38
2021/12/03 09:01:03;;;;;;;20.88;6.65;;;;;;;9.74;99.65;98881.33;1706662;81;21106;-39
2021/12/03 09:06:49;;;;;;;17.67;7.67;;;;;;;9.88;99.39;98897.17;1711996;81;21093;-38
2021/12/03 09:09:16;;;;;;;11.78;5.50;;;;;;;9.91;98.43;98883.59;1695290;82;21100;-38
2021/12/03 09:12:20;;;;;;;17.57;5.72;;;;;;;9.95;97.95;98885.70;1688552;82;21595;-38
2021/12/03 09:19:17;;;;;;;12.53;6.22;;;;;;;9.95;96.10;98883.95;1680599;82;21499;-46
2021/12/03 09:21:46;;;;;;;19.12;6.25;;;;;;;10.05;97.47;98895.09;1700819;82;20978;-38
2021/12/03 09:24:29;;;;;;;15.38;5.92;;;;;;;10.18;96.25;98887.41;1718429;81;21063;-38
2021/12/03 09:27:08;;;;;;;12.65;5.35;;;;;;;10.29;95.34;98890.69;1717104;81;21056;-38
2021/12/03 09:29:42;;;;;;;11.68;5.45;;;;;;;10.36;94.24;98890.11;1746459;80;21162;-38
2021/12/03 09:32:23;;;;;;;11.73;5.95;;;;;;;10.39;94.20;98895.30;1754692;80;21469;-38
2021/12/03 09:34:56;;;;;;;15.18;6.55;;;;;;;10.40;93.75;98891.78;1740581;79;21598;-39
2021/12/03 09:37:22;;;;;;;;;;;;;;;10.35;94.24;98894.48;1763220;79;20984;-38
2021/12/03 09:40:09;;;;;;;19.85;6.17;;;;;;;10.33;94.50;98903.27;1763895;79;20496;-47
2021/12/03 09:42:41;;;;;;;17.37;6.60;;;;;;;10.30;94.29;98897.64;1756320;79;20964;-46
2021/12/03 09:45:10;;;;;;;13.83;6.00;;;;;;;10.36;94.27;98896.20;1754305;79;21544;-39
2021/12/03 09:47:37;;;;;;;12.50;5.70;;;;;;;10.49;93.81;98882.41;1751119;79;21507;-38
2021/12/03 09:50:11;;;;;;;19.05;6.33;;;;;;;10.69;92.47;98879.81;1755346;80;21727;-41
2021/12/03 09:52:44;;;;;;;15.88;6.10;;;;;;;10.88;90.96;98870.63;1754241;79;21072;-39
2021/12/03 09:55:15;;;;;;;12.60;5.80;;;;;;;11.02;89.32;98851.55;1708561;81;21148;-39
2021/12/03 10:00:35;;;;;;;21.45;5.50;;;;;;;11.19;87.22;98845.90;1713617;81;21084;-40
2021/12/03 10:03:20;;;;;;;14.13;5.97;;;;;;;11.34;87.44;98848.55;1702798;81;21000;-39
2021/12/03 10:14:45;;;;;;;13.75;5.33;;;;;;;12.16;83.35;98825.78;1706722;81;21145;-44
2021/12/03 10:17:51;;;;;;;10.10;4.55;;;;;;;12.17;82.04;98820.94;1768843;79;21055;-41
2021/12/03 10:29:30;;;;;;;22.58;5.42;;;;;;;11.93;83.00;98814.66;1747659;79;21517;-45
2021/12/03 10:35:18;;;;;;;14.83;4.87;;;;;;;11.60;83.58;98813.38;1740873;79;21123;-46
2021/12/03 10:49:37;;;;;;;16.55;4.55;;;;;;;11.11;84.92;98802.88;1687954;82;21491;-44
2021/12/03 10:52:08;;;;;;;13.30;4.72;;;;;;;11.15;85.47;98801.06;1698933;82;21510;-38
2021/12/03 11:34:49;;;;;;;12.23;5.10;;;;;;;12.94;74.99;98748.09;1719177;80;21123;-45
2021/12/03 11:40:29;;;;;;;12.30;4.60;;;;;;;12.85;75.60;98739.20;1751279;79;21032;-37
2021/12/03 11:56:49;;;;;;;10.20;4.55;;;;;;;13.44;73.83;98752.50;1749161;79;21476;-41
2021/12/03 12:25:00;;;;;;;15.03;4.60;;;;;;;12.77;76.41;98753.91;1641474;85;21051;-45
2021/12/03 12:33:08;;;;;;;13.15;5.08;;;;;;;12.36;78.38;98760.48;1667523;84;21521;-45
2021/12/03 13:24:58;;;;;;;13.80;4.08;;;;;;;10.87;86.64;98834.45;1757873;80;21649;-44
2021/12/03 14:00:30;;;;;;;18.73;6.55;;;;;;;9.78;92.73;98883.42;1694061;83;21036;-38
2021/12/03 14:14:11;;;;;;;13.60;4.40;;;;;;;9.36;94.65;98886.38;1730051;81;21065;-38
2021/12/03 14:37:48;;;;;;;22.22;10.20;;;;;;;8.78;96.36;98896.00;1694592;83;21029;-44
2021/12/03 14:40:32;;;;;;;25.45;10.03;;;;;;;8.73;96.63;98898.67;1725509;82;21431;-37
2021/12/03 14:43:10;;;;;;;29.52;10.28;;;;;;;8.70;96.87;98900.48;1711910;82;21035;-38
2021/12/03 14:51:41;;;;;;;12.47;5.25;;;;;;;8.53;96.99;98910.70;1742016;80;20992;-41
2021/12/03 14:56:07;;;;;;;28.98;13.48;;;;;;;8.41;97.44;98921.73;1755660;81;21007;-44
2021/12/03 14:58:50;;;;;;;30.55;13.15;;;;;;;8.35;97.76;98926.55;1747682;81;21081;-44
2021/12/03 15:01:25;;;;;;;23.35;12.95;;;;;;;8.32;97.77;98935.70;1751970;81;21072;-44
2021/12/03 15:06:39;;;;;;;11.38;5.75;;;;;;;8.23;98.00;98955.34;1749721;80;21035;-44
2021/12/03 15:22:25;;;;;;;6.92;4.30;;;;;;;7.85;84.88;98992.23;1706819;83;21100;-45
2021/12/03 15:27:35;;;;;;;8.50;4.90;;;;;;;7.61;83.00;99003.73;1710820;82;20993;-45
2021/12/03 15:35:17;;;;;;;11.30;5.55;;;;;;;7.26;83.04;99003.58;1691339;83;21090;-37
2021/12/03 15:56:37;;;;;;;8.35;6.35;;;;;;;6.59;83.17;99071.52;1669065;86;21020;-44
2021/12/03 16:04:22;;;;;;;10.23;7.22;;;;;;;6.50;83.56;99082.83;1670876;84;21127;-45
2021/12/03 16:12:41;;;;;;;11.45;7.03;;;;;;;6.42;84.32;99083.27;1740527;81;21559;-45
2021/12/03 16:20:31;;;;;;;14.00;8.80;;;;;;;6.34;84.20;99107.11;1733845;81;21060;-44
